createdAt,value
2024-04-23T01:44:20.103Z,32.04
2024-04-23T01:44:50.092Z,32.04
2024-04-23T01:45:20.181Z,32.04
2024-04-23T01:45:50.087Z,32.04
2024-04-23T01:46:20.092Z,32.04
2024-04-23T01:46:50.174Z,32.04
2024-04-23T01:47:20.155Z,32.04
2024-04-23T01:47:50.088Z,32.04
2024-04-23T01:48:20.165Z,32.14
2024-04-23T01:48:50.046Z,32.04
2024-04-23T01:49:20.174Z,32.14
2024-04-23T01:49:50.188Z,32.14
2024-04-23T01:50:20.072Z,32.14
2024-04-23T01:50:50.028Z,32.14
2024-04-23T01:51:20.044Z,32.14
2024-04-23T01:51:50.037Z,32.14
2024-04-23T01:52:20.059Z,32.14
2024-04-23T01:52:50.032Z,32.14
2024-04-23T01:53:20.054Z,32.14
2024-04-23T01:53:49.996Z,32.14
2024-04-23T01:54:20.000Z,32.14
2024-04-23T01:54:49.984Z,32.14
2024-04-23T01:55:20.065Z,32.04
2024-04-23T01:55:50.043Z,32.14
2024-04-23T01:56:19.979Z,32.14
2024-04-23T01:56:49.973Z,32.04
2024-04-23T01:57:19.956Z,32.04
2024-04-23T01:57:49.960Z,32.14
2024-04-23T01:58:20.008Z,32.04
2024-04-23T01:58:49.953Z,32.04
2024-04-23T01:59:19.943Z,32.14
2024-04-23T01:59:49.968Z,32.14
2024-04-23T02:00:19.934Z,32.14
2024-04-23T02:00:49.953Z,32.14
2024-04-23T02:01:19.956Z,32.24
2024-04-23T02:01:49.998Z,32.24
2024-04-23T02:02:20.025Z,32.24
2024-04-23T02:02:50.009Z,32.14
2024-04-23T02:03:19.917Z,32.24
2024-04-23T02:03:49.975Z,32.24
2024-04-23T02:04:19.890Z,32.24
2024-04-23T02:04:49.897Z,32.24
2024-04-23T02:05:19.888Z,32.14
2024-04-23T02:05:49.872Z,32.14
2024-04-23T02:06:19.882Z,32.14
2024-04-23T02:06:49.854Z,32.14
2024-04-23T02:07:19.873Z,32.14
2024-04-23T02:07:49.970Z,32.14
2024-04-23T06:20:39.788Z,30.84
2024-04-23T06:21:10.636Z,30.74
2024-04-23T06:21:40.581Z,30.73
2024-04-23T06:22:10.609Z,30.63
2024-04-23T06:22:40.845Z,30.52
2024-04-23T06:23:10.730Z,30.43
2024-04-23T06:23:40.557Z,30.31
2024-04-23T06:24:10.570Z,30.31
2024-04-23T06:24:40.546Z,30.21
2024-04-23T06:25:10.567Z,30.21
2024-04-23T06:25:40.767Z,30.11
2024-04-23T06:26:10.659Z,30.10
2024-04-23T06:26:40.525Z,29.99
2024-04-23T06:27:10.524Z,29.90
2024-04-23T06:27:40.855Z,29.79
2024-04-23T06:28:10.586Z,29.79
2024-04-23T06:28:40.552Z,29.79
2024-04-23T06:29:10.511Z,29.79
2024-04-23T06:29:40.492Z,29.69
2024-04-23T06:30:10.578Z,29.69
2024-04-23T06:30:40.498Z,29.69
2024-04-23T06:31:10.483Z,29.69
2024-04-23T06:31:40.526Z,29.69
2024-04-23T06:32:10.566Z,29.69
2024-04-23T06:32:40.669Z,29.69
2024-04-23T06:33:10.872Z,29.79
2024-04-23T06:33:40.576Z,29.79
2024-04-23T06:34:10.441Z,29.79
2024-04-23T06:34:40.511Z,29.90
2024-04-23T06:35:10.545Z,29.91
2024-04-23T06:35:40.427Z,30.11
2024-04-23T06:36:10.434Z,30.31
2024-04-23T06:36:40.474Z,30.32
2024-04-23T06:37:10.430Z,30.43
2024-04-23T06:37:40.438Z,30.52
2024-04-23T06:38:10.531Z,30.63
2024-04-23T06:38:40.406Z,30.64
2024-04-23T06:39:10.391Z,30.74
2024-04-23T06:39:40.403Z,30.84
2024-04-23T06:40:11.034Z,30.94
2024-04-23T06:40:40.505Z,30.94
2024-04-23T06:41:10.399Z,30.94
2024-04-23T06:41:40.374Z,31.04
2024-04-23T06:42:10.370Z,31.04
2024-04-23T06:42:40.374Z,31.16
2024-04-23T06:43:12.326Z,31.16
2024-04-23T06:43:40.446Z,31.14
2024-04-23T06:44:10.387Z,31.14
2024-04-23T06:44:40.349Z,31.14
2024-04-23T06:45:10.326Z,31.04
2024-04-23T06:45:40.323Z,31.04
2024-04-23T06:46:10.321Z,30.94
2024-04-23T06:46:40.367Z,30.94
2024-04-23T06:47:10.329Z,30.94
2024-04-23T06:47:40.333Z,30.94
2024-04-23T06:48:10.391Z,30.84
2024-04-23T06:48:40.336Z,30.84
2024-04-23T06:49:10.287Z,30.84
2024-04-23T06:49:40.331Z,30.84
2024-04-23T06:50:10.367Z,30.94
2024-04-23T06:50:40.275Z,30.94
2024-04-23T06:51:10.309Z,31.04
2024-04-23T06:51:40.273Z,31.04
2024-04-23T06:52:10.258Z,31.14
2024-04-23T06:52:40.294Z,31.14
2024-04-23T06:53:10.291Z,31.26
2024-04-23T06:53:40.289Z,31.26
2024-04-23T06:54:10.233Z,31.36
2024-04-23T06:54:40.238Z,31.36
2024-04-23T06:55:10.238Z,31.36
2024-04-23T06:55:40.263Z,31.36
2024-04-23T06:56:10.306Z,31.26
2024-04-23T06:56:40.217Z,31.26
2024-04-23T06:57:10.198Z,31.36
2024-04-23T06:57:40.202Z,31.36
2024-04-23T06:58:10.208Z,31.46
2024-04-23T06:58:40.264Z,31.36
2024-04-23T06:59:10.253Z,31.46
2024-04-23T06:59:40.169Z,31.46
2024-04-23T07:00:10.178Z,31.46
2024-04-23T07:00:40.267Z,31.56
2024-04-23T07:01:10.236Z,31.56
2024-04-23T07:01:40.185Z,31.56
2024-04-23T07:02:10.291Z,31.56
2024-04-23T07:02:40.231Z,31.56
2024-04-23T07:03:10.138Z,31.56
2024-04-23T07:03:40.169Z,31.66
2024-04-23T07:04:10.214Z,31.66
2024-04-23T07:04:40.204Z,31.66
2024-04-23T07:05:10.283Z,31.66
2024-04-23T07:05:40.167Z,31.66
2024-04-23T07:06:10.100Z,31.66
2024-04-23T07:06:40.101Z,31.66
2024-04-23T07:07:10.110Z,31.66
2024-04-23T07:07:40.142Z,31.66
2024-04-23T07:08:10.196Z,31.76
2024-04-23T07:08:40.071Z,31.66
2024-04-23T07:09:10.135Z,31.66
2024-04-23T07:09:40.117Z,31.66
2024-04-23T07:10:10.060Z,31.76
2024-04-23T07:10:40.094Z,31.66
2024-04-23T07:11:10.104Z,31.66
2024-04-23T07:11:40.123Z,31.66
2024-04-23T07:12:10.031Z,31.66
2024-04-23T07:12:40.056Z,31.66
2024-04-23T07:13:10.040Z,31.66
2024-04-23T07:13:40.048Z,31.76
2024-04-23T07:14:10.110Z,31.76
2024-04-23T07:14:40.017Z,31.66
2024-04-23T07:15:10.051Z,31.76
2024-04-23T07:15:39.996Z,31.76
2024-04-23T07:16:10.000Z,31.66
2024-04-23T07:16:40.094Z,31.66
2024-04-23T07:17:10.106Z,31.66
2024-04-23T07:17:40.204Z,31.66
2024-04-23T07:18:10.156Z,31.66
2024-04-23T07:18:50.646Z,31.76
2024-04-23T07:19:10.019Z,31.76
2024-04-23T07:19:40.015Z,31.76
2024-04-23T07:20:10.148Z,31.76
2024-04-23T07:20:39.998Z,31.66
2024-04-23T07:21:09.974Z,31.66
2024-04-23T07:21:39.942Z,31.66
2024-04-23T07:22:09.938Z,31.66
2024-04-23T07:22:39.961Z,31.66
2024-04-23T07:23:09.963Z,31.76
2024-04-23T07:23:39.919Z,31.76
2024-04-23T07:24:09.927Z,31.76
2024-04-23T07:24:39.911Z,31.74
2024-04-23T07:25:09.971Z,31.74
2024-04-23T07:25:39.960Z,31.74
2024-04-23T07:26:09.970Z,31.74
2024-04-23T07:26:39.884Z,31.74
2024-04-23T07:27:09.889Z,31.74
2024-04-23T07:27:39.891Z,31.65
2024-04-23T07:28:09.861Z,31.74
2024-04-23T07:28:39.884Z,31.74
2024-04-23T07:29:09.875Z,31.74
2024-04-23T07:29:39.865Z,31.74
2024-04-23T07:30:09.906Z,31.74
2024-04-23T07:30:39.891Z,31.74
2024-04-23T07:31:09.855Z,31.74
2024-04-23T07:31:39.922Z,31.74
2024-04-23T07:32:10.020Z,31.85
2024-04-23T07:32:39.918Z,31.74
2024-04-23T07:33:09.981Z,31.74
2024-04-23T07:33:39.927Z,31.65
2024-04-23T07:34:09.806Z,31.34
2024-04-23T07:34:39.914Z,31.24
2024-04-23T07:35:09.860Z,31.14
2024-04-23T07:35:39.981Z,31.14
2024-04-23T07:36:09.776Z,30.94
2024-04-23T07:36:42.695Z,30.94
2024-04-23T07:37:09.828Z,30.94
2024-04-23T07:37:39.963Z,30.84
2024-04-23T07:38:09.833Z,30.84
2024-04-23T07:38:39.780Z,30.64
2024-04-23T07:39:09.752Z,30.74
2024-04-23T07:39:39.748Z,30.64
2024-04-23T07:40:09.748Z,30.64
2024-04-23T07:40:39.844Z,30.54
2024-04-23T07:41:09.823Z,30.54
2024-04-23T07:41:40.014Z,30.54
2024-04-23T07:42:09.725Z,30.34
2024-04-23T07:42:39.717Z,30.24
2024-04-23T07:43:09.735Z,30.34
2024-04-23T07:43:39.804Z,30.14
2024-04-23T07:44:10.170Z,30.04
2024-04-23T07:44:39.695Z,29.94
2024-04-23T07:45:09.700Z,30.04
2024-04-23T07:45:39.685Z,29.94
2024-04-23T07:46:09.739Z,29.94
2024-04-23T07:46:39.726Z,29.94
2024-04-23T07:47:09.775Z,29.74
2024-04-23T07:47:39.830Z,29.74
2024-04-23T07:48:09.771Z,29.83
2024-04-23T07:48:39.677Z,29.74
2024-04-23T07:49:09.675Z,29.75
2024-04-23T07:49:39.708Z,29.75
2024-04-23T07:50:09.755Z,29.74
2024-04-23T07:50:39.629Z,29.75
2024-04-23T07:51:09.650Z,29.75
2024-04-23T07:51:39.618Z,29.65
2024-04-23T07:52:09.638Z,29.55
2024-04-23T07:52:39.642Z,29.45
2024-04-23T07:53:09.705Z,29.45
2024-04-23T07:53:39.635Z,29.55
2024-04-23T07:54:09.610Z,29.45
2024-04-23T07:54:39.595Z,29.35
2024-04-23T07:55:09.578Z,29.45
2024-04-23T07:55:39.616Z,29.35
2024-04-23T07:56:09.724Z,29.35
2024-04-23T07:56:39.562Z,29.35
2024-04-23T07:57:09.598Z,29.35
2024-04-23T07:57:39.654Z,29.35
2024-04-23T07:58:09.549Z,29.25
2024-04-23T07:58:39.776Z,29.25
2024-04-23T07:59:09.653Z,29.35
2024-04-23T07:59:39.529Z,29.25
2024-04-23T08:00:09.544Z,29.25
2024-04-23T08:00:39.584Z,29.14
2024-04-23T08:01:09.577Z,29.14
2024-04-23T08:01:39.540Z,29.14
2024-04-23T08:02:09.761Z,29.25
2024-04-23T08:02:39.531Z,29.14
2024-04-23T08:03:11.578Z,29.05
2024-04-23T08:03:39.583Z,29.05
2024-04-23T08:04:09.551Z,29.05
2024-04-23T08:04:39.503Z,28.95
2024-04-23T08:05:09.543Z,28.95
2024-04-23T08:05:39.474Z,29.05
2024-04-23T08:06:09.454Z,28.85
2024-04-23T08:06:39.474Z,28.85
2024-04-23T08:07:09.453Z,28.85
2024-04-23T08:07:39.539Z,28.85
2024-04-23T08:08:09.630Z,28.95
2024-04-23T08:08:39.430Z,28.95
2024-04-23T08:09:09.425Z,28.85
2024-04-23T08:09:39.437Z,28.85
2024-04-23T08:10:09.422Z,28.85
2024-04-23T08:10:39.521Z,28.75
2024-04-23T08:11:09.735Z,28.75
2024-04-23T08:11:39.441Z,28.85
2024-04-23T08:12:09.481Z,28.75
2024-04-23T08:12:39.695Z,28.64
2024-04-23T08:13:09.433Z,28.75
2024-04-23T08:13:39.436Z,28.75
2024-04-23T08:14:09.486Z,28.75
2024-04-23T08:14:39.375Z,28.75
2024-04-23T08:15:09.437Z,28.64
2024-04-23T08:15:39.356Z,28.55
2024-04-23T08:16:09.357Z,28.55
2024-04-23T08:16:39.409Z,28.55
2024-04-23T08:17:09.480Z,28.64
2024-04-23T08:17:39.766Z,28.55
2024-04-23T08:18:09.610Z,28.55
2024-04-23T08:18:39.606Z,28.44
2024-04-23T08:19:09.348Z,28.44
2024-04-23T08:19:39.393Z,28.44
2024-04-23T08:20:09.403Z,28.34
2024-04-23T08:20:42.432Z,28.34
2024-04-23T08:21:09.325Z,28.34
2024-04-23T08:21:39.316Z,28.34
2024-04-23T08:22:09.303Z,28.34
2024-04-23T08:22:39.293Z,28.34
2024-04-23T08:23:09.305Z,28.34
2024-04-23T08:23:39.312Z,28.34
2024-04-23T08:24:09.261Z,28.34
2024-04-23T08:24:39.323Z,28.34
2024-04-23T08:25:09.271Z,28.34
2024-04-23T08:25:39.308Z,28.34
2024-04-23T08:26:09.366Z,28.34
2024-04-23T08:26:39.250Z,28.24
2024-04-23T08:27:09.233Z,28.14
2024-04-23T08:27:39.251Z,28.14
2024-04-23T08:28:09.250Z,28.14
2024-04-23T08:28:39.385Z,28.14
2024-04-23T08:29:09.320Z,28.14
2024-04-23T08:29:39.243Z,28.04
2024-04-23T08:30:09.250Z,28.04
2024-04-23T08:30:39.201Z,27.94
2024-04-23T08:31:09.241Z,28.04
2024-04-23T08:31:39.329Z,28.04
2024-04-23T08:32:09.356Z,27.94
2024-04-23T08:32:39.305Z,28.04
2024-04-23T08:33:09.302Z,28.04
2024-04-23T08:33:39.242Z,27.94
2024-04-23T08:34:09.181Z,27.84
2024-04-23T08:34:39.296Z,27.84
2024-04-23T08:35:09.174Z,27.84
2024-04-23T08:35:39.204Z,27.84
2024-04-23T08:36:09.321Z,27.84
2024-04-23T08:36:39.190Z,27.84
2024-04-23T08:37:09.170Z,27.84
2024-04-23T08:37:39.199Z,27.84
2024-04-23T08:38:09.176Z,27.74
2024-04-23T08:38:39.375Z,27.74
2024-04-23T08:39:09.152Z,27.64
2024-04-23T08:39:39.151Z,27.73
2024-04-23T08:40:09.163Z,27.74
2024-04-23T08:40:39.139Z,27.64
2024-04-23T08:41:09.214Z,27.64
2024-04-23T08:41:40.430Z,27.64
2024-04-23T08:42:09.075Z,27.64
2024-04-23T08:42:39.077Z,27.53
2024-04-23T08:43:09.129Z,27.64
2024-04-23T08:43:39.090Z,27.62
2024-04-23T08:44:09.286Z,27.64
2024-04-23T08:44:39.053Z,27.53
2024-04-23T08:45:09.052Z,27.44
2024-04-23T08:45:39.101Z,27.42
2024-04-23T08:46:09.076Z,27.33
2024-04-23T08:46:39.061Z,27.33
2024-04-23T08:47:09.098Z,27.42
2024-04-23T08:47:39.114Z,27.42
2024-04-23T08:48:09.152Z,27.42
2024-04-23T08:48:39.058Z,27.42
2024-04-23T08:49:08.997Z,27.22
2024-04-23T08:49:39.100Z,27.22
2024-04-23T08:50:09.097Z,27.22
2024-04-23T08:50:39.019Z,27.22
2024-04-23T08:51:09.409Z,27.22
2024-04-23T08:51:38.981Z,27.22
2024-04-23T08:52:08.988Z,27.12
2024-04-23T08:52:39.134Z,27.02
2024-04-23T08:53:09.309Z,27.12
2024-04-23T08:53:39.036Z,27.22
2024-04-23T08:54:08.946Z,27.22
2024-04-23T08:54:38.950Z,27.12
2024-04-23T08:55:08.951Z,27.12
2024-04-23T08:55:38.967Z,27.22
2024-04-23T08:56:09.036Z,27.22
2024-04-23T08:56:38.975Z,27.12
2024-04-23T08:57:08.925Z,27.02
2024-04-23T08:57:38.943Z,27.02
2024-04-23T08:58:08.917Z,27.02
2024-04-23T08:58:38.961Z,27.02
2024-04-23T08:59:08.923Z,27.02
2024-04-23T08:59:38.903Z,27.02
2024-04-23T09:00:08.889Z,27.02
2024-04-23T09:00:48.727Z,26.82
2024-04-23T09:01:08.892Z,26.92
2024-04-23T09:01:39.105Z,27.02
2024-04-23T09:02:08.941Z,27.02
2024-04-23T09:02:38.945Z,26.92
2024-04-23T09:03:08.946Z,26.92
2024-04-23T09:03:38.886Z,26.92
2024-04-23T09:04:08.913Z,26.92
2024-04-23T09:04:38.887Z,26.92
2024-04-23T09:05:08.923Z,26.92
2024-04-23T09:05:38.841Z,26.82
2024-04-23T09:06:08.830Z,26.82
2024-04-23T09:06:38.836Z,26.82
2024-04-23T09:07:11.420Z,26.72
2024-04-23T09:07:39.040Z,26.82
2024-04-23T09:08:08.948Z,26.82
2024-04-23T09:08:38.821Z,26.72
2024-04-23T09:09:08.796Z,26.82
2024-04-23T09:09:38.786Z,26.82
2024-04-23T09:10:08.794Z,26.72
2024-04-23T09:10:38.803Z,26.72
2024-04-23T09:11:08.835Z,26.62
2024-04-23T09:11:38.820Z,26.72
2024-04-23T09:12:08.878Z,26.62
2024-04-23T09:12:38.759Z,26.62
2024-04-23T09:13:08.846Z,26.62
2024-04-23T09:13:38.883Z,26.62
2024-04-23T09:14:08.947Z,26.72
2024-04-23T09:14:38.754Z,26.62
2024-04-23T09:15:08.767Z,26.62
2024-04-23T09:15:38.722Z,26.62
2024-04-23T09:16:08.724Z,26.62
2024-04-23T09:16:38.782Z,26.52
2024-04-23T09:17:08.868Z,26.52
2024-04-23T09:17:38.793Z,26.62
2024-04-23T09:18:08.935Z,26.62
2024-04-23T09:18:38.808Z,26.52
2024-04-23T09:19:08.697Z,26.62
2024-04-23T09:19:38.726Z,26.52
2024-04-23T09:20:08.775Z,26.62
2024-04-23T09:20:38.679Z,26.62
2024-04-23T09:21:08.670Z,26.62
2024-04-23T09:21:38.662Z,26.62
2024-04-23T09:22:09.767Z,26.62
2024-04-23T09:22:38.705Z,26.62
2024-04-23T09:23:08.755Z,26.62
2024-04-23T09:23:38.639Z,26.62
2024-04-23T09:24:08.633Z,26.52
2024-04-23T09:24:38.623Z,26.52
2024-04-23T09:25:08.629Z,26.52
2024-04-23T09:25:38.760Z,26.52
2024-04-23T09:26:08.753Z,26.62
2024-04-23T09:26:38.604Z,26.62
2024-04-23T09:27:08.614Z,26.52
2024-04-23T09:27:38.597Z,26.62
2024-04-23T09:28:08.735Z,26.52
2024-04-23T09:28:39.766Z,26.52
2024-04-23T09:29:08.609Z,26.52
2024-04-23T09:29:38.611Z,26.52
2024-04-23T09:30:08.585Z,26.52
2024-04-23T09:30:38.582Z,26.52
2024-04-23T09:31:08.551Z,26.52
2024-04-23T09:31:38.618Z,26.42
2024-04-23T09:32:08.764Z,26.42
2024-04-23T09:32:38.695Z,26.42
2024-04-23T09:33:08.815Z,26.42
2024-04-23T09:33:38.548Z,26.32
2024-04-23T09:34:08.532Z,26.32
2024-04-23T09:34:39.870Z,26.32
2024-04-23T09:35:08.692Z,26.32
2024-04-23T09:35:38.518Z,26.22
2024-04-23T09:36:08.506Z,26.22
2024-04-23T09:36:38.504Z,26.32
2024-04-23T09:37:08.492Z,26.12
2024-04-23T09:37:38.566Z,26.22
2024-04-23T09:38:08.929Z,26.12
2024-04-23T09:38:38.521Z,26.12
2024-04-23T09:39:08.710Z,26.12
2024-04-23T09:39:39.139Z,26.12
2024-04-23T09:40:08.470Z,26.02
2024-04-23T09:40:38.476Z,26.02
2024-04-23T09:41:08.691Z,26.02
2024-04-23T09:41:38.479Z,26.02
2024-04-23T09:42:08.508Z,26.02
2024-04-23T09:42:38.432Z,26.02
2024-04-23T09:43:08.473Z,25.92
2024-04-23T09:43:38.590Z,25.92
2024-04-23T09:44:08.554Z,25.92
2024-04-23T09:44:38.420Z,25.92
2024-04-23T09:45:08.406Z,25.82
2024-04-23T09:45:38.400Z,25.92
2024-04-23T09:46:10.759Z,25.92
2024-04-23T09:46:38.426Z,25.92
2024-04-23T09:47:08.586Z,25.82
2024-04-23T09:47:38.404Z,25.82
2024-04-23T09:48:08.454Z,25.82
2024-04-23T09:48:38.572Z,25.82
2024-04-23T09:49:08.416Z,25.82
2024-04-23T09:49:38.394Z,25.72
2024-04-23T09:50:08.427Z,25.82
2024-04-23T09:50:38.347Z,25.62
2024-04-23T09:51:08.353Z,25.62
2024-04-23T09:51:38.341Z,25.72
2024-04-23T09:52:08.342Z,25.62
2024-04-23T09:52:38.350Z,25.72
2024-04-23T09:53:08.437Z,25.72
2024-04-23T09:53:38.348Z,25.62
2024-04-23T09:54:08.364Z,25.72
2024-04-23T09:54:38.303Z,25.72
2024-04-23T09:55:08.306Z,25.72
2024-04-23T09:55:38.354Z,25.72
2024-04-23T09:56:08.478Z,25.72
2024-04-23T09:56:38.277Z,25.62
2024-04-23T09:57:08.278Z,25.62
2024-04-23T09:57:38.363Z,25.62
2024-04-23T09:58:08.260Z,25.62
2024-04-23T09:58:38.291Z,25.62
2024-04-23T09:59:08.291Z,25.52
2024-04-23T09:59:38.286Z,25.52
2024-04-23T10:00:08.267Z,25.52
2024-04-23T10:00:38.327Z,25.52
2024-04-23T10:01:08.264Z,25.52
2024-04-23T10:01:38.284Z,25.52
2024-04-23T10:02:08.365Z,25.42
2024-04-23T10:02:38.660Z,25.42
2024-04-23T10:03:08.828Z,25.42
2024-04-23T10:03:38.292Z,25.52
2024-04-23T10:04:08.277Z,25.42
2024-04-23T10:04:38.404Z,25.52
2024-04-23T10:05:08.355Z,25.52
2024-04-23T10:05:38.284Z,25.52
2024-04-23T10:06:08.220Z,25.52
2024-04-23T10:06:38.213Z,25.42
2024-04-23T10:07:08.171Z,25.42
2024-04-23T10:07:38.221Z,25.52
2024-04-23T10:08:08.307Z,25.52
2024-04-23T10:08:38.145Z,25.42
2024-04-23T10:09:08.181Z,25.42
2024-04-23T10:09:38.145Z,25.42
2024-04-23T10:10:08.142Z,25.32
2024-04-23T10:10:38.153Z,25.32
2024-04-23T10:11:08.272Z,25.42
2024-04-23T10:11:38.155Z,25.32
2024-04-23T10:12:08.117Z,25.32
2024-04-23T10:12:38.102Z,25.32
2024-04-23T10:13:08.103Z,25.32
2024-04-23T10:13:38.169Z,25.32
2024-04-23T10:14:08.150Z,25.21
2024-04-23T10:14:38.084Z,25.21
2024-04-23T10:15:08.133Z,25.21
2024-04-23T10:15:38.073Z,25.21
2024-04-23T10:16:08.092Z,25.12
2024-04-23T10:16:38.185Z,25.12
2024-04-23T10:17:08.154Z,25.12
2024-04-23T10:17:38.109Z,25.12
2024-04-23T10:18:08.200Z,25.12
2024-04-23T10:18:38.088Z,25.01
2024-04-23T10:19:08.045Z,25.12
2024-04-23T10:19:38.133Z,25.01
2024-04-23T10:20:08.215Z,25.12
2024-04-23T10:20:38.043Z,25.01
2024-04-23T10:21:08.029Z,25.00
2024-04-23T10:21:38.054Z,25.12
2024-04-23T10:22:08.034Z,24.91
2024-04-23T10:22:38.057Z,24.90
2024-04-23T10:23:08.133Z,25.01
2024-04-23T10:23:37.995Z,24.91
2024-04-23T10:24:07.985Z,24.81
2024-04-23T10:24:37.978Z,24.81
2024-04-23T10:25:07.985Z,24.81
2024-04-23T10:25:38.453Z,24.81
2024-04-23T10:26:08.050Z,24.80
2024-04-23T10:26:38.007Z,24.70
2024-04-23T10:27:07.980Z,24.70
2024-04-23T10:27:37.940Z,24.70
2024-04-23T10:28:07.947Z,24.70
2024-04-23T10:28:37.961Z,24.60
2024-04-23T10:29:08.015Z,24.60
2024-04-23T10:29:37.963Z,24.60
2024-04-23T10:30:07.932Z,24.60
2024-04-23T10:30:37.922Z,24.40
2024-04-23T10:31:07.908Z,24.50
2024-04-23T10:31:38.147Z,24.50
2024-04-23T10:32:08.026Z,24.60
2024-04-23T10:32:38.015Z,24.50
2024-04-23T10:33:07.933Z,24.40
2024-04-23T10:33:37.975Z,24.40
2024-04-23T10:34:07.879Z,24.40
2024-04-23T10:34:37.899Z,24.40
2024-04-23T10:35:07.944Z,24.30
2024-04-23T10:35:37.865Z,24.40
2024-04-23T10:36:07.880Z,24.30
2024-04-23T10:36:37.842Z,24.30
2024-04-23T10:37:07.894Z,24.40
2024-04-23T10:37:38.536Z,24.30
2024-04-23T10:38:07.927Z,24.30
2024-04-23T10:38:37.826Z,24.30
2024-04-23T10:39:07.842Z,24.40
2024-04-23T10:39:37.831Z,24.30
2024-04-23T10:40:07.848Z,24.30
2024-04-23T10:40:46.232Z,24.30
2024-04-23T10:41:07.831Z,24.30
2024-04-23T10:41:37.897Z,24.30
2024-04-23T10:42:07.842Z,24.20
2024-04-23T10:42:37.787Z,24.30
2024-04-23T10:43:07.788Z,24.30
2024-04-23T10:43:38.262Z,24.30
2024-04-23T10:44:07.836Z,24.20
2024-04-23T10:44:37.821Z,24.10
2024-04-23T10:45:07.765Z,24.20
2024-04-23T10:45:37.757Z,24.20
2024-04-23T10:46:08.391Z,24.30
2024-04-23T10:46:37.803Z,24.20
2024-04-23T10:47:07.874Z,24.20
2024-04-23T10:47:37.796Z,24.20
2024-04-23T10:48:07.789Z,24.20
2024-04-23T10:48:38.031Z,24.20
2024-04-23T10:49:07.723Z,24.10
2024-04-23T10:49:37.852Z,24.10
2024-04-23T10:50:07.889Z,24.20
2024-04-23T10:50:37.715Z,24.00
2024-04-23T10:51:07.710Z,24.10
2024-04-23T10:51:37.713Z,24.10
2024-04-23T10:52:07.694Z,24.10
2024-04-23T10:52:37.754Z,24.10
2024-04-23T10:53:07.828Z,24.10
2024-04-23T10:53:37.682Z,24.00
2024-04-23T10:54:10.592Z,24.00
2024-04-23T10:54:37.671Z,24.10
2024-04-23T10:55:07.675Z,24.00
2024-04-23T10:55:37.709Z,24.00
2024-04-23T10:56:07.805Z,23.90
2024-04-23T10:56:37.647Z,23.90
2024-04-23T10:57:07.648Z,23.90
2024-04-23T10:57:37.691Z,23.80
2024-04-23T10:58:07.637Z,23.90
2024-04-23T10:58:37.728Z,23.80
2024-04-23T10:59:07.634Z,23.80
2024-04-23T10:59:37.723Z,23.80
2024-04-23T11:00:07.660Z,23.80
2024-04-23T11:00:37.807Z,23.90
2024-04-23T11:01:07.613Z,23.90
2024-04-23T11:01:37.718Z,23.90
2024-04-23T11:02:07.895Z,23.69
2024-04-23T11:02:37.684Z,23.69
2024-04-23T11:03:07.594Z,23.80
2024-04-23T11:03:37.715Z,23.80
2024-04-23T11:04:07.702Z,23.69
2024-04-23T11:04:37.771Z,23.60
2024-04-23T11:05:07.689Z,23.69
2024-04-23T11:05:37.632Z,23.69
2024-04-23T11:06:11.346Z,23.69
2024-04-23T11:06:37.549Z,23.60
2024-04-23T11:07:07.553Z,23.60
2024-04-23T11:07:37.570Z,23.69
2024-04-23T11:08:07.568Z,23.60
2024-04-23T11:08:37.516Z,23.60
2024-04-23T11:09:07.513Z,23.60
2024-04-23T11:09:37.532Z,23.69
2024-04-23T11:10:07.551Z,23.69
2024-04-23T11:10:37.561Z,23.50
2024-04-23T11:11:07.745Z,23.60
2024-04-23T11:11:37.534Z,23.60
2024-04-23T11:12:09.198Z,23.60
2024-04-23T11:12:37.522Z,23.60
2024-04-23T11:13:07.473Z,23.50
2024-04-23T11:13:37.500Z,23.60
2024-04-23T11:14:07.592Z,23.69
2024-04-23T11:14:37.456Z,23.69
2024-04-23T11:15:07.521Z,23.60
2024-04-23T11:15:37.458Z,23.50
2024-04-23T11:16:07.474Z,23.50
2024-04-23T11:16:37.445Z,23.50
2024-04-23T11:17:07.554Z,23.60
2024-04-23T11:17:37.543Z,23.60
2024-04-23T11:18:11.200Z,23.60
2024-04-23T11:18:37.521Z,23.60
2024-04-23T11:19:07.456Z,23.60
2024-04-23T11:19:37.447Z,23.50
2024-04-23T11:20:07.565Z,23.60
2024-04-23T11:20:37.387Z,23.60
2024-04-23T11:21:07.489Z,23.50
2024-04-23T11:21:37.387Z,23.50
2024-04-23T11:22:07.386Z,23.50
2024-04-23T11:22:37.453Z,23.60
2024-04-23T11:23:07.385Z,23.50
2024-04-23T11:23:37.358Z,23.39
2024-04-23T11:24:09.388Z,23.39
2024-04-23T11:24:37.345Z,23.39
2024-04-23T11:25:07.352Z,23.50
2024-04-23T11:25:37.453Z,23.39
2024-04-23T11:26:07.473Z,23.50
2024-04-23T11:26:37.340Z,23.39
2024-04-23T11:27:07.319Z,23.39
2024-04-23T11:27:37.373Z,23.19
2024-04-23T11:28:07.331Z,23.19
2024-04-23T11:28:37.319Z,23.30
2024-04-23T11:29:07.377Z,23.19
2024-04-23T11:29:37.298Z,23.30
2024-04-23T11:30:10.553Z,23.19
2024-04-23T11:30:37.280Z,23.19
2024-04-23T11:31:07.310Z,23.19
2024-04-23T11:31:37.475Z,23.19
2024-04-23T11:32:07.395Z,23.19
2024-04-23T11:32:37.323Z,23.19
2024-04-23T11:33:07.379Z,23.19
2024-04-23T11:33:37.421Z,23.10
2024-04-23T11:34:07.247Z,23.10
2024-04-23T11:34:37.277Z,23.19
2024-04-23T11:35:07.433Z,23.10
2024-04-23T11:35:37.244Z,23.10
2024-04-23T11:36:09.630Z,23.19
2024-04-23T11:36:37.283Z,23.10
2024-04-23T11:37:07.221Z,22.99
2024-04-23T11:37:37.289Z,22.99
2024-04-23T11:38:07.349Z,23.10
2024-04-23T11:38:37.200Z,23.10
2024-04-23T11:39:07.208Z,23.19
2024-04-23T11:39:37.191Z,23.19
2024-04-23T11:40:07.202Z,23.10
2024-04-23T11:40:37.201Z,23.10
2024-04-23T11:41:07.329Z,23.19
2024-04-23T11:41:37.241Z,23.10
2024-04-23T11:42:08.977Z,23.10
2024-04-23T11:42:37.170Z,23.10
2024-04-23T11:43:07.150Z,22.99
2024-04-23T11:43:37.208Z,22.99
2024-04-23T11:44:07.290Z,22.99
2024-04-23T11:44:37.142Z,22.99
2024-04-23T11:45:07.144Z,22.99
2024-04-23T11:45:37.129Z,22.89
2024-04-23T11:46:07.145Z,22.99
2024-04-23T11:46:37.203Z,22.99
2024-04-23T11:47:07.295Z,22.99
2024-04-23T11:47:37.422Z,22.99
2024-04-23T11:48:07.222Z,22.99
2024-04-23T11:48:37.311Z,22.99
2024-04-23T11:49:07.115Z,23.10
2024-04-23T11:49:37.144Z,22.99
2024-04-23T11:50:07.846Z,23.10
2024-04-23T11:50:37.079Z,23.10
2024-04-23T11:51:07.066Z,23.10
2024-04-23T11:51:37.457Z,23.10
2024-04-23T11:52:08.503Z,22.99
2024-04-23T11:52:37.230Z,23.10
2024-04-23T11:53:07.064Z,23.10
2024-04-23T11:53:37.045Z,22.99
2024-04-23T11:54:07.039Z,22.99
2024-04-23T11:54:37.038Z,22.99
2024-04-23T11:55:07.035Z,22.99
2024-04-23T11:55:37.161Z,22.99
2024-04-23T11:56:07.112Z,23.10
2024-04-23T11:56:37.018Z,22.99
2024-04-23T11:57:07.001Z,22.99
2024-04-23T11:57:37.000Z,22.99
2024-04-23T11:58:07.042Z,22.99
2024-04-23T11:58:37.040Z,22.99
2024-04-23T11:59:07.136Z,22.99
2024-04-23T11:59:36.981Z,22.99
2024-04-23T12:00:07.004Z,22.89
2024-04-23T12:00:37.033Z,22.89
2024-04-23T12:01:07.107Z,22.99
2024-04-23T12:01:36.993Z,22.89
2024-04-23T12:02:07.087Z,22.89
2024-04-23T12:02:37.004Z,22.89
2024-04-23T12:03:06.999Z,22.79
2024-04-23T12:03:36.964Z,22.79
2024-04-23T12:04:06.984Z,22.89
2024-04-23T12:04:36.996Z,22.79
2024-04-23T12:05:07.103Z,22.79
2024-04-23T12:05:37.030Z,22.79
2024-04-23T12:06:07.332Z,22.89
2024-04-23T12:06:36.934Z,22.89
2024-04-23T12:07:06.939Z,22.89
2024-04-23T12:07:37.049Z,22.79
2024-04-23T12:08:07.177Z,22.79
2024-04-23T12:08:36.985Z,22.69
2024-04-23T12:09:06.898Z,22.69
2024-04-23T12:09:36.883Z,22.69
2024-04-23T12:10:06.966Z,22.69
2024-04-23T12:10:36.914Z,22.69
2024-04-23T12:11:07.065Z,22.59
2024-04-23T12:11:37.000Z,22.59
2024-04-23T12:12:06.920Z,22.59
2024-04-23T12:12:37.128Z,22.59
2024-04-23T12:13:06.978Z,22.59
2024-04-23T12:13:36.930Z,22.59
2024-04-23T12:14:07.000Z,22.49
2024-04-23T12:14:36.835Z,22.49
2024-04-23T12:15:06.892Z,22.49
2024-04-23T12:15:36.822Z,22.49
2024-04-23T12:16:06.815Z,22.49
2024-04-23T12:16:36.815Z,22.49
2024-04-23T12:17:06.896Z,22.49
2024-04-23T12:17:36.888Z,22.49
2024-04-23T12:18:06.901Z,22.49
2024-04-23T12:18:36.880Z,22.59
2024-04-23T12:19:06.767Z,22.59
2024-04-23T12:19:36.833Z,22.59
2024-04-23T12:20:06.875Z,22.59
2024-04-23T12:20:36.758Z,22.59
2024-04-23T12:21:06.747Z,22.59
2024-04-23T12:21:36.747Z,22.49
2024-04-23T12:22:06.735Z,22.59
2024-04-23T12:22:36.788Z,22.59